Time;durP1;ratioP1;P1;durP2;ratioP2;P2;SDS_P1;SDS_P2;PMS_P1;PMS_P2;Temp;Humidity;BMP_temperature;BMP_pressure;BME280_temperature;BME280_humidity;BME280_pressure;Samples;Min_cycle;Max_cycle;Signal;HPM_P1;HPM_P2
2023/05/07 00:02:48;;;;;;;22.10;9.60;;;;;;;13.67;67.38;99119.07;223744;181;138414;-64
2023/05/07 00:07:52;;;;;;;13.60;8.60;;;;;;;13.59;67.30;99127.13;223757;181;139565;-67
2023/05/07 00:12:56;;;;;;;12.90;8.10;;;;;;;13.47;67.25;99126.35;223866;181;145351;-65
2023/05/07 00:17:59;;;;;;;15.90;8.50;;;;;;;13.35;67.39;99128.49;223802;181;138762;-67
2023/05/07 00:23:02;;;;;;;13.20;8.10;;;;;;;13.30;67.46;99129.18;223753;181;139946;-68
2023/05/07 00:28:05;;;;;;;13.10;7.60;;;;;;;13.28;67.46;99129.39;223843;180;145835;-69
2023/05/07 00:33:08;;;;;;;15.50;7.80;;;;;;;13.31;67.47;99133.61;223735;181;138207;-66
2023/05/07 00:38:12;;;;;;;15.70;8.90;;;;;;;13.29;67.45;99135.16;223809;181;136699;-67
2023/05/07 00:43:15;;;;;;;13.20;9.00;;;;;;;13.22;67.58;99139.58;223783;181;145296;-68
2023/05/07 00:48:18;;;;;;;16.50;11.10;;;;;;;13.15;67.90;99139.85;223807;181;138526;-68
2023/05/07 00:53:22;;;;;;;18.60;10.80;;;;;;;13.13;67.67;99145.52;223840;181;136722;-64
2023/05/07 00:58:25;;;;;;;16.60;10.30;;;;;;;13.07;67.62;99145.48;223784;181;145332;-64
2023/05/07 01:03:28;;;;;;;17.70;10.60;;;;;;;12.98;67.74;99143.91;223744;181;138444;-64
2023/05/07 01:08:32;;;;;;;16.70;10.50;;;;;;;12.84;68.00;99147.02;223845;181;137780;-66
2023/05/07 01:13:37;;;;;;;16.50;10.40;;;;;;;12.75;68.22;99145.14;223768;181;145074;-63
2023/05/07 01:18:40;;;;;;;16.30;10.40;;;;;;;12.73;68.55;99150.84;223755;181;138978;-65
2023/05/07 01:23:45;;;;;;;18.00;10.90;;;;;;;12.74;68.59;99153.23;223705;181;137558;-66
2023/05/07 01:28:49;;;;;;;16.00;10.70;;;;;;;12.79;68.54;99151.33;223813;182;145758;-67
2023/05/07 01:33:53;;;;;;;18.80;11.30;;;;;;;12.77;68.43;99157.67;223759;181;138339;-67
2023/05/07 01:38:58;;;;;;;21.30;11.80;;;;;;;12.77;68.35;99161.05;223773;181;138682;-65
2023/05/07 01:44:03;;;;;;;20.20;12.00;;;;;;;12.73;68.36;99162.60;223818;181;145668;-67
2023/05/07 01:49:07;;;;;;;16.00;11.80;;;;;;;12.63;68.22;99162.95;223805;181;138749;-68
2023/05/07 01:54:10;;;;;;;16.90;11.10;;;;;;;12.55;68.30;99168.98;223858;181;137488;-66
2023/05/07 01:59:13;;;;;;;13.80;9.80;;;;;;;12.45;68.23;99168.25;223753;181;145329;-66
2023/05/07 02:04:16;;;;;;;12.50;8.70;;;;;;;12.43;68.14;99167.50;223738;182;138715;-67
2023/05/07 02:09:20;;;;;;;14.00;8.90;;;;;;;12.41;68.31;99167.46;223832;182;137317;-66
2023/05/07 02:14:25;;;;;;;14.40;8.00;;;;;;;12.44;68.18;99163.36;223809;183;145445;-67
2023/05/07 02:19:29;;;;;;;12.40;8.20;;;;;;;12.43;68.13;99166.80;223771;182;138481;-69
2023/05/07 02:24:34;;;;;;;10.80;7.30;;;;;;;12.38;68.27;99167.60;223745;183;137070;-66
2023/05/07 02:29:37;;;;;;;12.10;8.00;;;;;;;12.37;68.25;99168.42;223738;182;145160;-63
2023/05/07 02:34:41;;;;;;;9.80;7.40;;;;;;;12.33;68.25;99165.83;223688;182;138456;-64
2023/05/07 02:39:44;;;;;;;11.60;7.20;;;;;;;12.27;68.47;99175.16;223666;182;137552;-64
2023/05/07 02:44:47;;;;;;;7.20;5.20;;;;;;;12.21;68.50;99178.91;223802;182;147115;-63
2023/05/07 02:49:51;;;;;;;6.30;4.80;;;;;;;12.22;68.47;99184.40;223685;182;140746;-65
2023/05/07 02:54:55;;;;;;;6.10;4.40;;;;;;;12.23;68.20;99183.98;223709;181;139260;-64
2023/05/07 02:59:59;;;;;;;7.70;4.40;;;;;;;12.23;67.82;99189.09;223766;181;145339;-62
2023/05/07 03:05:06;;;;;;;6.50;3.40;;;;;;;12.20;67.76;99189.85;223781;181;138418;-65
2023/05/07 03:10:10;;;;;;;4.50;3.20;;;;;;;12.14;67.73;99190.40;223759;181;136953;-66
2023/05/07 03:16:12;;;;;;;3.00;2.20;;;;;;;12.12;67.63;99200.13;221204;193;666185;-67
2023/05/07 03:21:15;;;;;;;3.00;1.80;;;;;;;12.00;67.22;99210.38;223730;183;137035;-67
2023/05/07 03:26:18;;;;;;;3.50;2.00;;;;;;;11.95;67.34;99215.30;223862;182;143597;-69
2023/05/07 03:31:21;;;;;;;4.20;1.90;;;;;;;11.93;67.25;99219.52;223746;182;139024;-65
2023/05/07 03:36:28;;;;;;;3.20;1.50;;;;;;;11.88;67.16;99221.46;223798;182;136811;-65
2023/05/07 03:41:32;;;;;;;2.60;1.70;;;;;;;11.86;66.91;99227.64;223788;182;144151;-67
2023/05/07 03:46:35;;;;;;;3.40;1.60;;;;;;;11.87;66.75;99236.25;223796;182;138171;-70
2023/05/07 03:51:39;;;;;;;2.50;1.90;;;;;;;11.91;66.75;99244.03;223802;182;136780;-69
2023/05/07 03:56:43;;;;;;;3.40;1.80;;;;;;;11.87;66.69;99246.06;223755;181;143947;-71
2023/05/07 04:01:46;;;;;;;3.00;1.90;;;;;;;11.83;66.89;99250.36;223894;181;138855;-71
2023/05/07 04:06:52;;;;;;;2.60;1.90;;;;;;;11.80;66.89;99258.02;223712;182;136884;-70
2023/05/07 04:12:06;;;;;;;3.00;1.70;;;;;;;11.73;66.90;99259.70;222245;181;146112;-70
2023/05/07 04:17:10;;;;;;;2.50;1.70;;;;;;;11.67;67.07;99266.98;221153;181;139791;-70
2023/05/07 04:22:14;;;;;;;2.70;1.80;;;;;;;11.63;67.04;99266.52;223671;181;136792;-69
2023/05/07 04:27:17;;;;;;;2.60;1.70;;;;;;;11.57;66.98;99272.45;223804;181;145804;-66
2023/05/07 04:32:20;;;;;;;2.70;1.60;;;;;;;11.52;67.10;99278.10;221821;181;138815;-65
2023/05/07 04:37:26;;;;;;;1.90;1.50;;;;;;;11.52;67.08;99281.64;223558;181;137069;-69
2023/05/07 04:42:29;;;;;;;5.00;2.00;;;;;;;11.56;66.81;99291.48;223195;181;145469;-66
2023/05/07 04:47:34;;;;;;;1.70;1.10;;;;;;;11.57;66.82;99299.58;222915;181;138801;-67
2023/05/07 04:52:38;;;;;;;4.80;1.70;;;;;;;11.59;66.48;99304.83;223794;181;136316;-65
2023/05/07 04:57:41;;;;;;;1.60;1.30;;;;;;;11.56;66.42;99309.08;223799;181;145268;-66
2023/05/07 05:02:55;;;;;;;1.70;1.40;;;;;;;11.52;66.50;99317.00;223741;181;139364;-66
2023/05/07 05:07:58;;;;;;;1.80;1.20;;;;;;;11.44;66.44;99321.58;223758;181;136495;-67
2023/05/07 05:13:02;;;;;;;1.90;1.30;;;;;;;11.39;66.41;99330.23;223730;181;145666;-66
2023/05/07 05:18:06;;;;;;;1.90;1.50;;;;;;;11.37;66.55;99330.84;223706;181;138338;-69
2023/05/07 05:23:09;;;;;;;115.40;83.90;;;;;;;11.37;66.58;99341.20;223823;181;136916;-68
2023/05/07 05:28:13;;;;;;;7.50;5.10;;;;;;;11.35;66.47;99342.56;223821;181;145324;-67
2023/05/07 05:33:21;;;;;;;44.60;32.20;;;;;;;11.37;66.62;99351.30;223701;177;141112;-70
2023/05/07 05:38:25;;;;;;;2.80;1.60;;;;;;;11.41;66.38;99365.47;223754;182;137785;-67
2023/05/07 05:43:30;;;;;;;3.20;1.40;;;;;;;11.41;66.00;99369.58;223786;182;145339;-67
2023/05/07 05:48:33;;;;;;;4.80;1.30;;;;;;;11.36;65.82;99376.04;223775;181;138538;-73
2023/05/07 05:53:37;;;;;;;1.70;1.30;;;;;;;11.29;65.65;99383.77;223803;181;137908;-66
2023/05/07 05:58:47;;;;;;;2.90;1.60;;;;;;;11.23;65.73;99390.00;223726;181;147635;-66
2023/05/07 06:03:51;;;;;;;2.10;1.40;;;;;;;11.16;65.70;99394.51;223792;182;138973;-65
2023/05/07 06:08:54;;;;;;;3.30;1.40;;;;;;;11.09;65.67;99400.77;223740;182;138042;-67
2023/05/07 06:14:01;;;;;;;1.70;1.30;;;;;;;10.97;65.69;99408.36;223646;183;145730;-65
2023/05/07 06:19:06;;;;;;;3.50;2.00;;;;;;;10.89;65.68;99412.23;223775;182;138111;-73
2023/05/07 06:24:10;;;;;;;24.70;18.90;;;;;;;10.85;65.79;99409.44;223752;181;136889;-67
2023/05/07 06:29:18;;;;;;;4.50;2.30;;;;;;;10.83;66.05;99413.78;223761;182;145652;-69
2023/05/07 06:34:21;;;;;;;3.50;1.60;;;;;;;10.84;66.14;99415.70;223759;181;138632;-65
2023/05/07 06:39:35;;;;;;;3.70;1.70;;;;;;;10.82;65.92;99420.77;223760;181;137470;-67
2023/05/07 06:44:38;;;;;;;3.90;1.80;;;;;;;10.89;65.84;99415.02;223834;181;144586;-67
2023/05/07 06:49:44;;;;;;;2.20;1.60;;;;;;;10.97;65.63;99422.55;223823;181;138344;-68
2023/05/07 06:54:50;;;;;;;1.80;1.40;;;;;;;11.01;65.32;99426.96;223795;183;136468;-71
2023/05/07 06:59:55;;;;;;;4.60;1.60;;;;;;;11.00;65.15;99430.57;223652;181;145338;-71
2023/05/07 07:04:59;;;;;;;2.10;1.20;;;;;;;10.95;65.21;99433.52;223828;181;137866;-68
2023/05/07 07:10:04;;;;;;;39.40;28.20;;;;;;;10.92;65.24;99440.23;223688;181;137220;-70
2023/05/07 07:15:07;;;;;;;3.00;2.10;;;;;;;10.91;65.34;99448.13;223745;182;145540;-68
2023/05/07 07:20:11;;;;;;;2.20;1.50;;;;;;;10.87;65.34;99456.86;223801;181;138668;-71
2023/05/07 08:25:33;;;;;;;75.70;55.30;;;;;;;10.71;65.32;99527.86;221270;193;667559;-72
2023/05/07 08:30:37;;;;;;;5.80;3.60;;;;;;;10.74;65.25;99537.66;223709;183;136519;-69
2023/05/07 08:35:41;;;;;;;4.10;2.70;;;;;;;10.68;64.80;99543.13;223696;184;144846;-68
2023/05/07 08:40:46;;;;;;;3.10;2.20;;;;;;;10.64;64.88;99555.21;223686;183;138968;-68
2023/05/07 10:45:30;;;;;;;7.30;5.30;;;;;;;10.86;64.01;99661.79;221082;193;665977;-69
2023/05/07 10:50:36;;;;;;;4.80;2.60;;;;;;;10.73;63.86;99668.29;223610;184;136774;-71
2023/05/07 10:55:40;;;;;;;116.70;85.20;;;;;;;10.70;64.01;99666.70;223622;183;143897;-67
2023/05/07 11:00:52;;;;;;;5.80;5.00;;;;;;;10.74;64.07;99675.91;223935;180;138435;-66
2023/05/07 11:06:11;;;;;;;58.50;41.70;;;;;;;10.80;63.85;99676.85;223646;181;135880;-68
2023/05/07 11:11:51;;;;;;;6.80;5.10;;;;;;;10.90;63.39;99677.15;223899;181;143434;-68
2023/05/07 11:17:22;;;;;;;3.30;2.30;;;;;;;10.85;62.85;99679.20;223862;180;138425;-66
2023/05/07 11:22:39;;;;;;;2.40;1.70;;;;;;;10.80;62.92;99680.20;223699;181;137425;-70
2023/05/07 11:27:49;;;;;;;2.50;1.80;;;;;;;10.74;62.95;99683.52;223795;182;143530;-68
2023/05/07 11:32:52;;;;;;;196.40;137.40;;;;;;;10.75;63.17;99685.45;223785;182;139372;-66
2023/05/07 11:38:00;;;;;;;9.20;6.10;;;;;;;10.89;63.65;99680.42;223906;182;137425;-67
2023/05/07 11:43:11;;;;;;;3.30;2.50;;;;;;;10.93;62.66;99684.11;223761;181;146044;-67
2023/05/07 11:48:16;;;;;;;3.10;1.90;;;;;;;10.93;62.61;99689.12;223802;182;140524;-68
2023/05/07 11:53:20;;;;;;;2.00;1.60;;;;;;;10.93;62.52;99695.31;223852;181;139772;-68
2023/05/07 11:58:25;;;;;;;5.30;2.00;;;;;;;10.91;62.55;99698.45;223762;181;145212;-66
2023/05/07 12:03:28;;;;;;;489.60;376.20;;;;;;;10.88;63.02;99707.10;222334;182;139382;-67
2023/05/07 12:08:39;;;;;;;12.50;9.20;;;;;;;10.99;63.32;99712.37;223433;181;137085;-66
2023/05/07 12:13:42;;;;;;;3.80;3.00;;;;;;;10.99;62.42;99717.20;223751;181;145333;-67
2023/05/07 12:18:46;;;;;;;2.30;1.80;;;;;;;10.97;62.25;99719.59;223747;181;138847;-67
2023/05/07 12:23:49;;;;;;;3.20;1.90;;;;;;;10.98;61.98;99719.52;223807;181;137165;-68
2023/05/07 12:28:53;;;;;;;2.90;2.00;;;;;;;10.98;61.74;99719.35;223747;181;145292;-67
2023/05/07 12:34:12;;;;;;;2.60;1.80;;;;;;;10.95;61.66;99722.20;223741;181;140443;-66
2023/05/07 12:39:19;;;;;;;10.70;7.70;;;;;;;10.95;62.00;99729.10;223755;181;137086;-69
2023/05/07 12:44:32;;;;;;;4.40;2.40;;;;;;;10.97;61.41;99730.99;223791;181;145609;-67
2023/05/07 12:49:38;;;;;;;3.30;2.10;;;;;;;10.91;61.67;99736.25;223708;181;139413;-68
2023/05/07 12:54:41;;;;;;;2.80;1.80;;;;;;;10.85;61.53;99741.17;223781;181;136736;-67
2023/05/07 12:59:57;;;;;;;3.60;2.40;;;;;;;10.78;61.45;99741.16;223755;181;146139;-65
2023/05/07 13:05:00;;;;;;;;;;;;;;;10.79;61.43;99738.80;223809;181;138920;-65
2023/05/07 13:10:04;;;;;;;2.30;1.90;;;;;;;10.81;61.73;99739.44;223923;181;128955;-68
2023/05/07 13:15:08;;;;;;;2.20;1.90;;;;;;;10.93;61.90;99740.05;223774;181;145213;-65
2023/05/07 13:20:15;;;;;;;160.90;107.70;;;;;;;11.00;61.52;99746.45;223867;181;138278;-66
2023/05/07 13:25:18;;;;;;;13.50;8.40;;;;;;;11.01;61.37;99749.60;223843;181;137084;-68
2023/05/07 13:30:21;;;;;;;3.20;2.70;;;;;;;10.99;61.05;99751.78;223758;181;146017;-72
2023/05/07 13:35:25;;;;;;;4.30;2.30;;;;;;;11.03;60.93;99754.09;223789;181;138927;-70
2023/05/07 13:40:29;;;;;;;3.20;2.40;;;;;;;11.01;60.38;99755.43;223837;180;136754;-73
2023/05/07 13:45:32;;;;;;;3.10;2.00;;;;;;;10.98;60.31;99754.35;223797;180;145465;-69
2023/05/07 13:50:36;;;;;;;2.50;2.10;;;;;;;10.93;60.35;99758.16;223799;181;138672;-67
2023/05/07 13:55:39;;;;;;;3.80;2.80;;;;;;;10.84;60.52;99758.79;223841;181;136956;-66
2023/05/07 14:00:43;;;;;;;2.80;2.30;;;;;;;10.79;60.70;99763.45;223733;181;147119;-66
2023/05/07 14:05:53;;;;;;;4.20;2.60;;;;;;;10.75;60.95;99766.71;223680;181;138946;-69
2023/05/07 14:10:59;;;;;;;173.40;128.40;;;;;;;10.72;61.41;99767.77;223774;181;138691;-66
2023/05/07 14:16:05;;;;;;;10.20;7.20;;;;;;;10.82;61.45;99768.64;223839;180;145773;-64
2023/05/07 14:25:30;;;;;;;5.70;3.20;;;;;;;10.83;60.90;99777.64;222663;189;666561;-68
2023/05/07 14:30:33;;;;;;;3.50;2.70;;;;;;;10.83;61.10;99786.89;223203;188;136127;-65
2023/05/07 16:45:49;;;;;;;5.00;4.00;;;;;;;10.52;61.65;99859.26;221957;193;668156;-75
2023/05/07 16:57:24;;;;;;;5.90;4.40;;;;;;;10.27;61.42;99867.54;223163;185;143615;-72
2023/05/07 17:02:28;;;;;;;7.30;4.90;;;;;;;10.22;61.61;99867.02;223792;183;138305;-71
2023/05/07 17:07:32;;;;;;;13.20;8.50;;;;;;;10.23;61.81;99866.67;223552;182;135883;-73
2023/05/07 17:12:36;;;;;;;5.80;4.30;;;;;;;10.26;61.66;99873.08;222862;183;143338;-72
2023/05/07 17:17:40;;;;;;;7.40;4.70;;;;;;;10.18;61.51;99877.84;223893;181;138275;-73
2023/05/07 17:22:44;;;;;;;10.50;5.70;;;;;;;10.11;61.47;99881.73;223916;180;136828;-73
2023/05/07 17:28:04;;;;;;;6.90;4.60;;;;;;;10.07;61.54;99878.73;223892;180;144683;-73
2023/05/07 17:33:08;;;;;;;6.90;4.90;;;;;;;10.05;61.71;99886.43;223872;181;138468;-72
2023/05/07 17:38:23;;;;;;;6.80;4.70;;;;;;;10.00;61.87;99892.70;223826;181;136072;-72
2023/05/07 17:43:26;;;;;;;7.70;4.70;;;;;;;9.92;61.85;99891.29;223768;180;145417;-71
2023/05/07 17:48:30;;;;;;;6.60;5.00;;;;;;;9.87;61.84;99898.96;223460;181;139607;-72
2023/05/07 17:53:33;;;;;;;8.00;5.40;;;;;;;9.86;62.18;99905.95;223852;181;135997;-71
2023/05/07 17:58:37;;;;;;;6.30;5.00;;;;;;;9.85;62.20;99907.41;223899;181;145491;-70
2023/05/07 18:04:01;;;;;;;120.40;82.60;;;;;;;9.85;62.35;99911.48;223791;181;140471;-70
2023/05/07 18:09:05;;;;;;;9.60;6.60;;;;;;;9.92;62.49;99920.89;223824;181;136573;-72
2023/05/07 18:14:08;;;;;;;7.00;5.40;;;;;;;9.85;61.76;99929.02;223733;181;147066;-72
2023/05/07 18:19:12;;;;;;;7.40;5.30;;;;;;;9.79;61.84;99931.63;223790;181;138241;-71
2023/05/07 18:24:15;;;;;;;7.10;4.90;;;;;;;9.73;61.83;99932.02;223745;181;135946;-72
2023/05/07 18:29:19;;;;;;;7.80;5.20;;;;;;;9.74;61.97;99936.08;223783;181;145572;-72
2023/05/07 18:34:22;;;;;;;6.20;5.20;;;;;;;9.69;61.92;99945.30;223756;181;139489;-72
2023/05/07 18:39:26;;;;;;;8.00;5.30;;;;;;;9.66;61.87;99949.67;223706;181;136207;-71
2023/05/07 18:44:30;;;;;;;8.30;6.00;;;;;;;9.65;61.98;99951.88;223898;181;145109;-70
2023/05/07 18:49:34;;;;;;;5.90;4.80;;;;;;;9.63;62.02;99955.16;223748;181;138053;-70
2023/05/07 18:54:38;;;;;;;7.90;5.80;;;;;;;9.55;62.07;99961.88;223742;181;135888;-74
2023/05/07 18:59:42;;;;;;;9.00;5.50;;;;;;;9.54;62.44;99965.84;223828;181;145701;-73
2023/05/07 19:04:45;;;;;;;6.60;5.10;;;;;;;9.55;62.47;99966.84;223668;181;138372;-71
2023/05/07 19:09:49;;;;;;;8.70;5.80;;;;;;;9.52;62.47;99970.16;223797;181;136283;-71
2023/05/07 19:15:08;;;;;;;6.70;5.20;;;;;;;9.52;62.55;99972.66;223612;181;145493;-71
2023/05/07 19:20:12;;;;;;;7.90;5.10;;;;;;;9.51;62.42;99967.91;223837;181;138793;-71
2023/05/07 19:25:16;;;;;;;7.10;5.40;;;;;;;9.46;62.38;99972.70;223853;181;139354;-71
2023/05/07 19:30:20;;;;;;;6.60;5.00;;;;;;;9.42;62.50;99981.19;223446;181;145141;-72
2023/05/07 19:35:24;;;;;;;197.40;141.70;;;;;;;9.42;62.78;99977.33;223501;181;138552;-76
2023/05/07 19:40:28;;;;;;;7.40;5.90;;;;;;;9.59;63.25;99980.83;222929;182;137167;-71
2023/05/07 19:45:36;;;;;;;5.50;4.30;;;;;;;9.66;62.35;99980.17;223430;181;146146;-80
2023/05/07 19:50:40;;;;;;;6.90;4.50;;;;;;;9.67;62.27;99980.47;222858;181;138006;-71
2023/05/07 19:55:44;;;;;;;5.30;4.30;;;;;;;9.68;62.24;99980.09;221820;181;138035;-71
2023/05/07 20:00:48;;;;;;;5.80;4.70;;;;;;;9.71;62.02;99983.70;223891;181;145793;-70
2023/05/07 20:05:52;;;;;;;6.20;4.60;;;;;;;9.69;62.08;99984.64;223872;181;138749;-70
2023/05/07 20:10:56;;;;;;;6.30;4.30;;;;;;;9.64;62.19;99987.54;222652;181;136323;-69
2023/05/07 20:16:01;;;;;;;4.70;3.60;;;;;;;9.61;62.21;99989.09;223888;181;147086;-70
2023/05/07 20:21:05;;;;;;;6.90;3.80;;;;;;;9.58;62.18;99994.02;221664;182;138965;-68
2023/05/07 20:26:08;;;;;;;7.50;4.30;;;;;;;9.55;62.56;99988.08;223663;181;137165;-69
2023/05/07 20:31:12;;;;;;;4.70;3.80;;;;;;;9.53;62.41;99992.59;223811;182;145763;-68
2023/05/07 20:36:24;;;;;;;6.90;4.10;;;;;;;9.52;62.59;100000.13;221480;182;138742;-68
2023/05/07 20:41:28;;;;;;;6.40;4.10;;;;;;;9.49;62.44;99999.52;222349;182;137045;-68
2023/05/07 20:46:31;;;;;;;6.80;3.70;;;;;;;9.48;62.60;100002.56;223788;182;145438;-68
2023/05/07 20:51:35;;;;;;;7.30;4.70;;;;;;;9.46;62.66;100006.72;221088;182;139403;-69
2023/05/07 20:56:38;;;;;;;5.50;3.90;;;;;;;9.46;62.56;100010.25;223797;181;137037;-68
2023/05/07 21:01:41;;;;;;;7.30;3.80;;;;;;;9.44;62.59;100013.70;223784;182;145377;-68
2023/05/07 21:06:45;;;;;;;5.70;3.60;;;;;;;9.44;62.47;100017.27;223814;181;138807;-69
2023/05/07 21:11:48;;;;;;;5.90;3.70;;;;;;;9.41;62.25;100023.95;223802;182;137071;-68
2023/05/07 21:16:52;;;;;;;5.00;3.40;;;;;;;9.34;61.90;100025.30;222765;182;145528;-69
2023/05/07 21:21:57;;;;;;;6.00;3.60;;;;;;;9.31;62.19;100029.14;223291;182;138935;-69
2023/05/07 21:27:00;;;;;;;5.60;3.40;;;;;;;9.29;62.31;100033.63;222351;182;136723;-69
2023/05/07 21:32:04;;;;;;;4.80;3.60;;;;;;;9.23;62.26;100033.33;223845;182;145424;-69
2023/05/07 21:37:08;;;;;;;5.40;3.10;;;;;;;9.21;62.28;100031.13;223802;182;138879;-70
2023/05/07 21:42:11;;;;;;;4.00;3.10;;;;;;;9.19;62.13;100024.48;223725;181;136453;-69
2023/05/07 21:47:14;;;;;;;4.20;2.90;;;;;;;9.18;62.18;100028.75;223235;181;145983;-71
2023/05/07 21:52:18;;;;;;;4.60;2.90;;;;;;;9.17;62.07;100031.64;223756;181;138580;-71
2023/05/07 21:57:21;;;;;;;4.60;3.00;;;;;;;9.20;61.85;100034.02;223815;181;136346;-71
2023/05/07 22:02:25;;;;;;;3.10;2.30;;;;;;;9.19;61.62;100039.52;223156;181;145547;-69
2023/05/07 22:07:28;;;;;;;4.20;2.70;;;;;;;9.13;61.72;100041.91;221444;181;138656;-71
2023/05/07 22:12:31;;;;;;;4.20;2.80;;;;;;;9.10;61.97;100036.14;223411;181;137122;-71
2023/05/07 22:17:35;;;;;;;4.60;3.00;;;;;;;9.10;62.16;100032.63;223045;182;144833;-71
2023/05/07 22:22:48;;;;;;;4.70;3.20;;;;;;;9.14;62.27;100033.55;223806;181;139043;-71
2023/05/07 22:27:54;;;;;;;6.60;3.60;;;;;;;9.14;62.31;100039.54;223819;181;137295;-71
2023/05/07 22:32:58;;;;;;;3.70;3.10;;;;;;;9.12;62.42;100045.09;223827;182;145745;-71
2023/05/07 22:38:01;;;;;;;4.30;3.00;;;;;;;9.11;62.47;100046.21;223838;182;139218;-70
2023/05/07 22:43:05;;;;;;;4.60;3.00;;;;;;;9.10;62.54;100043.07;223802;182;137327;-70
2023/05/07 22:48:08;;;;;;;4.00;3.10;;;;;;;9.08;62.62;100036.64;223779;182;145835;-70
2023/05/07 22:53:12;;;;;;;4.00;3.10;;;;;;;9.07;62.36;100036.13;223765;182;138349;-71
2023/05/07 22:58:15;;;;;;;4.40;3.20;;;;;;;9.07;62.56;100033.13;223784;181;137089;-70
2023/05/07 23:03:19;;;;;;;4.60;2.90;;;;;;;9.09;62.70;100034.29;223622;182;146342;-70
2023/05/07 23:08:22;;;;;;;5.60;3.40;;;;;;;9.08;62.69;100028.65;223750;182;138904;-69
2023/05/07 23:13:26;;;;;;;5.00;3.40;;;;;;;9.05;62.68;100023.98;223883;181;136719;-70
2023/05/07 23:18:32;;;;;;;4.60;3.50;;;;;;;9.04;62.66;100022.45;223849;182;145748;-70
2023/05/07 23:23:41;;;;;;;3.70;3.00;;;;;;;9.01;62.52;100017.23;223763;182;138865;-71
2023/05/07 23:28:44;;;;;;;4.50;3.40;;;;;;;8.99;62.76;100014.48;223544;182;136659;-70
2023/05/07 23:33:48;;;;;;;6.70;3.30;;;;;;;9.01;62.93;100022.39;223822;181;145593;-70
2023/05/07 23:38:52;;;;;;;5.40;3.40;;;;;;;8.99;62.79;100017.98;223825;182;138644;-70
2023/05/07 23:43:55;;;;;;;5.20;3.30;;;;;;;8.99;62.89;100013.77;223618;181;137128;-71
2023/05/07 23:48:59;;;;;;;4.10;3.10;;;;;;;9.03;62.82;100014.33;223011;181;145476;-69
2023/05/07 23:54:05;;;;;;;3.90;2.70;;;;;;;9.06;62.69;100017.92;223827;182;150917;-71
2023/05/07 23:59:12;;;;;;;5.90;3.20;;;;;;;9.12;62.67;100009.36;222832;181;136615;-70
